createdAt,value
2017-12-29T00:00:03.305Z,0
2017-12-29T00:01:24.893Z,0
2017-12-29T00:02:47.134Z,0
2017-12-29T00:04:09.024Z,0
2017-12-29T00:05:31.192Z,0
2017-12-29T00:06:53.163Z,0
2017-12-29T00:08:14.824Z,0
2017-12-29T00:09:36.318Z,0
2017-12-29T00:10:58.294Z,0
2017-12-29T00:12:20.275Z,0
2017-12-29T00:13:42.224Z,0
2017-12-29T00:15:04.162Z,0
2017-12-29T00:16:26.119Z,0
2017-12-29T00:17:48.006Z,0
2017-12-29T00:19:09.985Z,0
2017-12-29T00:20:32.304Z,0
2017-12-29T00:21:53.795Z,0
2017-12-29T00:23:15.389Z,0
2017-12-29T00:24:37.318Z,0
2017-12-29T00:25:59.455Z,0
2017-12-29T00:27:21.582Z,0
2017-12-29T00:28:43.458Z,0
2017-12-29T00:30:05.055Z,0
2017-12-29T00:31:26.992Z,0
2017-12-29T00:32:49.123Z,0
2017-12-29T00:34:10.720Z,0
2017-12-29T00:35:32.755Z,0
2017-12-29T00:36:54.621Z,0
2017-12-29T00:38:16.496Z,0
2017-12-29T00:39:38.452Z,0
2017-12-29T00:41:00.707Z,0
2017-12-29T00:42:22.618Z,0
2017-12-29T00:43:44.478Z,0
2017-12-29T00:45:06.126Z,0
2017-12-29T00:46:28.241Z,0
2017-12-29T00:47:50.466Z,0
2017-12-29T00:49:11.834Z,0
2017-12-29T00:50:33.431Z,0
2017-12-29T00:51:55.377Z,0
2017-12-29T00:53:17.000Z,0
2017-12-29T00:54:38.872Z,0
2017-12-29T00:56:00.530Z,0
2017-12-29T00:57:22.176Z,0
2017-12-29T00:58:43.912Z,0
2017-12-29T01:00:05.863Z,0
2017-12-29T01:01:27.794Z,0
2017-12-29T01:02:49.512Z,0
2017-12-29T01:04:11.101Z,0
2017-12-29T01:05:32.531Z,0
2017-12-29T01:06:53.863Z,0
2017-12-29T01:08:15.698Z,0
2017-12-29T01:09:37.833Z,0
2017-12-29T01:10:59.437Z,0
2017-12-29T01:12:21.293Z,0
2017-12-29T01:13:43.244Z,0
2017-12-29T01:15:05.124Z,0
2017-12-29T01:16:27.054Z,0
2017-12-29T01:17:49.177Z,0
2017-12-29T01:19:10.878Z,0
2017-12-29T01:20:33.259Z,0
2017-12-29T01:21:55.138Z,0
2017-12-29T01:23:17.016Z,0
2017-12-29T01:24:38.895Z,0
2017-12-29T01:26:01.200Z,0
2017-12-29T01:27:23.303Z,0
2017-12-29T01:28:45.156Z,0
2017-12-29T01:30:07.174Z,0
2017-12-29T01:31:29.304Z,0
2017-12-29T01:32:51.155Z,0
2017-12-29T01:34:13.387Z,0
2017-12-29T01:35:34.718Z,0
2017-12-29T01:36:56.045Z,0
2017-12-29T01:38:17.950Z,0
2017-12-29T01:39:39.794Z,0
2017-12-29T01:41:01.906Z,0
2017-12-29T01:42:23.504Z,0
2017-12-29T01:43:45.111Z,0
2017-12-29T01:45:07.296Z,0
2017-12-29T01:46:29.143Z,0
2017-12-29T01:47:51.165Z,0
2017-12-29T01:49:12.778Z,0
2017-12-29T01:50:34.375Z,0
2017-12-29T01:51:55.978Z,0
2017-12-29T01:53:18.088Z,0
2017-12-29T01:54:40.171Z,0
2017-12-29T01:56:01.516Z,0
2017-12-29T01:57:23.377Z,0
2017-12-29T01:58:45.288Z,0
2017-12-29T02:00:07.120Z,0
2017-12-29T02:01:29.256Z,0
2017-12-29T02:02:51.354Z,0
2017-12-29T02:04:13.229Z,0
2017-12-29T02:05:34.584Z,0
2017-12-29T02:06:56.563Z,0
2017-12-29T02:08:18.697Z,0
2017-12-29T02:09:40.582Z,0
2017-12-29T02:11:02.278Z,0
2017-12-29T02:12:24.126Z,0
2017-12-29T02:13:45.583Z,0
2017-12-29T02:15:06.917Z,0
2017-12-29T02:16:29.055Z,0
2017-12-29T02:17:50.398Z,0
2017-12-29T02:19:12.143Z,0
2017-12-29T02:20:34.083Z,0
2017-12-29T02:21:55.754Z,0
2017-12-29T02:23:17.860Z,0
2017-12-29T02:24:39.595Z,0
2017-12-29T02:26:01.204Z,0
2017-12-29T02:27:22.790Z,0
2017-12-29T02:28:44.926Z,0
2017-12-29T02:30:07.046Z,0
2017-12-29T02:31:28.682Z,0
2017-12-29T02:32:50.288Z,0
2017-12-29T02:34:12.144Z,0
2017-12-29T02:35:34.289Z,0
2017-12-29T02:36:56.394Z,0
2017-12-29T02:38:17.847Z,0
2017-12-29T02:39:39.691Z,0
2017-12-29T02:41:01.596Z,0
2017-12-29T02:42:22.935Z,0
2017-12-29T02:43:44.807Z,0
2017-12-29T02:45:06.151Z,0
2017-12-29T02:46:28.025Z,0
2017-12-29T02:47:49.875Z,0
2017-12-29T02:49:12.002Z,0
2017-12-29T02:50:33.841Z,0
2017-12-29T02:51:55.701Z,0
2017-12-29T02:53:17.872Z,0
2017-12-29T02:54:39.726Z,0
2017-12-29T02:56:01.599Z,0
2017-12-29T02:57:23.714Z,0
2017-12-29T02:58:45.294Z,0
2017-12-29T03:00:07.140Z,0
2017-12-29T03:01:28.504Z,0
2017-12-29T03:02:50.078Z,0
2017-12-29T03:04:11.665Z,0
2017-12-29T03:05:33.530Z,0
2017-12-29T03:06:55.455Z,0
2017-12-29T03:08:16.852Z,0
2017-12-29T03:09:38.497Z,0
2017-12-29T03:11:00.325Z,0
2017-12-29T03:12:22.206Z,0
2017-12-29T03:13:44.062Z,0
2017-12-29T03:15:05.656Z,0
2017-12-29T03:16:27.758Z,0
2017-12-29T03:17:49.347Z,0
2017-12-29T03:19:11.267Z,0
2017-12-29T03:20:32.853Z,0
2017-12-29T03:21:54.722Z,0
2017-12-29T03:23:16.831Z,0
2017-12-29T03:24:38.616Z,0
2017-12-29T03:26:00.203Z,0
2017-12-29T03:27:21.878Z,0
2017-12-29T03:28:43.733Z,0
2017-12-29T03:30:05.706Z,0
2017-12-29T03:31:27.325Z,0
2017-12-29T03:32:48.915Z,0
2017-12-29T03:34:11.165Z,0
2017-12-29T03:35:33.316Z,0
2017-12-29T03:36:55.060Z,0
2017-12-29T03:38:16.456Z,0
2017-12-29T03:39:38.561Z,0
2017-12-29T03:41:00.675Z,0
2017-12-29T03:42:22.808Z,0
2017-12-29T03:43:44.925Z,0
2017-12-29T03:45:06.555Z,0
2017-12-29T03:46:28.194Z,0
2017-12-29T03:47:50.035Z,0
2017-12-29T03:49:11.640Z,0
2017-12-29T03:50:33.489Z,0
2017-12-29T03:51:55.366Z,0
2017-12-29T03:53:16.982Z,0
2017-12-29T03:54:38.856Z,0
2017-12-29T03:56:00.708Z,0
2017-12-29T03:57:22.825Z,0
2017-12-29T03:58:44.156Z,0
2017-12-29T04:00:06.000Z,0
2017-12-29T04:01:28.163Z,0
2017-12-29T04:02:49.749Z,0
2017-12-29T04:04:11.577Z,0
2017-12-29T04:05:33.302Z,0
2017-12-29T04:06:54.919Z,0
2017-12-29T04:08:17.087Z,0
2017-12-29T04:09:37.910Z,0
2017-12-29T04:10:59.806Z,0
2017-12-29T04:12:21.652Z,0
2017-12-29T04:13:43.252Z,0
2017-12-29T04:15:04.825Z,0
2017-12-29T04:16:26.174Z,0
2017-12-29T04:17:48.298Z,0
2017-12-29T04:19:09.655Z,0
2017-12-29T04:20:31.825Z,0
2017-12-29T04:21:53.516Z,0
2017-12-29T04:23:15.391Z,0
2017-12-29T04:24:37.246Z,0
2017-12-29T04:25:59.127Z,0
2017-12-29T04:27:20.716Z,0
2017-12-29T04:28:42.567Z,0
2017-12-29T04:30:04.437Z,0
2017-12-29T04:31:26.668Z,0
2017-12-29T04:32:48.257Z,0
2017-12-29T04:34:09.645Z,0
2017-12-29T04:35:31.250Z,0
2017-12-29T04:36:52.902Z,0
2017-12-29T04:38:14.502Z,0
2017-12-29T04:39:36.356Z,0
2017-12-29T04:40:58.282Z,0
2017-12-29T04:42:20.175Z,0
2017-12-29T04:43:41.840Z,0
2017-12-29T04:45:03.436Z,0
2017-12-29T04:46:25.024Z,0
2017-12-29T04:47:46.876Z,0
2017-12-29T04:49:08.535Z,0
2017-12-29T04:50:30.017Z,0
2017-12-29T04:51:51.949Z,0
2017-12-29T04:53:13.261Z,0
2017-12-29T04:54:34.860Z,0
2017-12-29T04:55:56.445Z,0
2017-12-29T04:57:18.749Z,0
2017-12-29T04:58:40.086Z,0
2017-12-29T05:00:01.989Z,0
2017-12-29T05:01:23.826Z,0
2017-12-29T05:02:45.462Z,0
2017-12-29T05:04:06.801Z,0
2017-12-29T05:05:29.274Z,0
2017-12-29T05:06:50.939Z,0
2017-12-29T05:08:12.543Z,0
2017-12-29T05:09:34.576Z,0
2017-12-29T05:10:56.688Z,0
2017-12-29T05:12:18.856Z,0
2017-12-29T05:13:40.464Z,0
2017-12-29T05:15:02.337Z,0
2017-12-29T05:16:24.237Z,0
2017-12-29T05:17:46.175Z,0
2017-12-29T05:19:07.774Z,0
2017-12-29T05:20:29.433Z,0
2017-12-29T05:21:51.025Z,0
2017-12-29T05:23:12.635Z,0
2017-12-29T05:24:33.964Z,0
2017-12-29T05:25:55.809Z,0
2017-12-29T05:27:17.157Z,0
2017-12-29T05:28:39.005Z,0
2017-12-29T05:30:00.389Z,0
2017-12-29T05:31:22.245Z,0
2017-12-29T05:32:43.840Z,0
2017-12-29T05:34:04.939Z,0
2017-12-29T05:35:26.809Z,0
2017-12-29T05:36:48.476Z,0
2017-12-29T05:38:10.388Z,0
2017-12-29T05:39:31.966Z,0
2017-12-29T05:40:53.366Z,0
2017-12-29T05:42:15.005Z,0
2017-12-29T05:43:36.618Z,0
2017-12-29T05:44:57.943Z,0
2017-12-29T05:46:19.799Z,0
2017-12-29T05:47:41.656Z,0
2017-12-29T05:49:03.497Z,0
2017-12-29T05:50:24.838Z,0
2017-12-29T05:51:46.235Z,0
2017-12-29T05:53:07.868Z,0
2017-12-29T05:54:29.447Z,0
2017-12-29T05:55:50.505Z,0
2017-12-29T05:57:11.586Z,0
2017-12-29T05:58:33.335Z,0
2017-12-29T05:59:54.469Z,0
2017-12-29T06:01:16.575Z,0
2017-12-29T06:02:38.180Z,0
2017-12-29T06:03:59.985Z,0
2017-12-29T06:05:21.558Z,0
2017-12-29T06:06:43.416Z,0
2017-12-29T06:08:05.315Z,0
2017-12-29T06:09:27.295Z,0
2017-12-29T06:10:49.134Z,0
2017-12-29T06:12:10.738Z,0
2017-12-29T06:13:32.876Z,0
2017-12-29T06:14:54.739Z,0
2017-12-29T06:16:16.585Z,0
2017-12-29T06:17:37.906Z,0
2017-12-29T06:18:59.265Z,0
2017-12-29T06:20:21.160Z,0
2017-12-29T06:21:42.793Z,0
2017-12-29T06:23:04.424Z,0
2017-12-29T06:24:25.742Z,0
2017-12-29T06:25:46.809Z,0
2017-12-29T06:27:08.686Z,0
2017-12-29T06:28:30.900Z,0
2017-12-29T06:29:52.233Z,0
2017-12-29T06:31:14.237Z,0
2017-12-29T06:32:36.334Z,0
2017-12-29T06:33:57.667Z,0
2017-12-29T06:35:20.070Z,0
2017-12-29T06:36:42.043Z,0
2017-12-29T06:38:04.326Z,0
2017-12-29T06:39:26.436Z,0
2017-12-29T06:40:48.281Z,0
2017-12-29T06:42:09.602Z,0
2017-12-29T06:43:30.939Z,0
2017-12-29T06:44:52.909Z,0
2017-12-29T06:46:14.992Z,0
2017-12-29T06:47:36.899Z,0
2017-12-29T06:48:58.796Z,0
2017-12-29T06:50:20.403Z,0
2017-12-29T06:51:42.109Z,0
2017-12-29T06:53:04.082Z,0
2017-12-29T06:54:25.658Z,0
2017-12-29T06:55:47.276Z,0
2017-12-29T06:57:08.600Z,0
2017-12-29T06:58:30.457Z,0
2017-12-29T06:59:52.304Z,0
2017-12-29T07:01:14.524Z,0
2017-12-29T07:02:36.095Z,4
2017-12-29T07:03:57.977Z,4
2017-12-29T07:05:19.118Z,0
2017-12-29T07:06:41.205Z,0
2017-12-29T07:08:03.333Z,4
2017-12-29T07:09:24.923Z,4
2017-12-29T07:10:46.247Z,4
2017-12-29T07:12:07.847Z,4
2017-12-29T07:13:29.423Z,4
2017-12-29T07:14:51.010Z,8
2017-12-29T07:16:13.203Z,8
2017-12-29T07:17:35.106Z,12
2017-12-29T07:18:56.939Z,12
2017-12-29T07:20:18.394Z,16
2017-12-29T07:21:40.240Z,20
2017-12-29T07:23:02.434Z,24
2017-12-29T07:24:24.542Z,28
2017-12-29T07:25:46.123Z,32
2017-12-29T07:27:07.464Z,40
2017-12-29T07:28:29.313Z,52
2017-12-29T07:29:50.413Z,60
2017-12-29T07:31:12.040Z,76
2017-12-29T07:32:34.172Z,88
2017-12-29T07:33:56.036Z,96
2017-12-29T07:35:18.023Z,100
2017-12-29T07:36:40.118Z,108
2017-12-29T07:38:01.752Z,120
2017-12-29T07:39:23.594Z,124
2017-12-29T07:40:45.743Z,136
2017-12-29T07:42:07.868Z,148
2017-12-29T07:43:29.994Z,168
2017-12-29T07:44:51.603Z,188
2017-12-29T07:46:13.226Z,200
2017-12-29T07:47:35.373Z,216
2017-12-29T07:48:57.486Z,236
2017-12-29T07:50:18.816Z,248
2017-12-29T07:51:40.731Z,252
2017-12-29T07:53:02.848Z,248
2017-12-29T07:54:24.743Z,256
2017-12-29T07:55:46.623Z,276
2017-12-29T07:57:08.332Z,312
2017-12-29T07:58:30.522Z,356
2017-12-29T07:59:52.242Z,420
2017-12-29T08:01:13.627Z,468
2017-12-29T08:02:34.976Z,536
2017-12-29T08:03:57.256Z,620
2017-12-29T08:05:18.912Z,724
2017-12-29T08:06:40.799Z,840
2017-12-29T08:08:02.674Z,964
2017-12-29T08:09:24.522Z,1112
2017-12-29T08:10:46.694Z,1264
2017-12-29T08:12:08.371Z,1380
2017-12-29T08:13:29.981Z,1532
2017-12-29T08:14:51.045Z,1544
2017-12-29T08:16:12.724Z,1536
2017-12-29T08:17:34.947Z,1560
2017-12-29T08:18:56.546Z,1556
2017-12-29T08:20:17.893Z,1560
2017-12-29T08:21:39.786Z,1596
2017-12-29T08:23:01.912Z,1644
2017-12-29T08:24:23.550Z,1688
2017-12-29T08:25:45.399Z,1720
2017-12-29T08:27:06.987Z,1760
2017-12-29T08:28:30.274Z,1808
2017-12-29T08:29:51.876Z,1856
2017-12-29T08:31:13.805Z,1912
2017-12-29T08:32:35.416Z,1932
2017-12-29T08:33:57.532Z,1988
2017-12-29T08:35:19.734Z,2008
2017-12-29T08:36:41.920Z,2056
2017-12-29T08:38:03.523Z,2100
2017-12-29T08:39:25.107Z,2088
2017-12-29T08:40:46.712Z,2012
2017-12-29T08:42:08.853Z,2024
2017-12-29T08:43:30.469Z,2076
2017-12-29T08:44:52.086Z,2208
2017-12-29T08:46:13.973Z,2292
2017-12-29T08:47:35.849Z,2508
2017-12-29T08:48:58.026Z,2548
2017-12-29T08:50:20.146Z,2312
2017-12-29T08:51:42.319Z,2156
2017-12-29T08:53:04.513Z,2124
2017-12-29T08:54:26.673Z,2172
2017-12-29T08:55:48.631Z,2252
2017-12-29T08:57:10.482Z,2284
2017-12-29T08:58:32.614Z,2392
2017-12-29T08:59:54.483Z,2468
2017-12-29T09:01:16.093Z,2444
2017-12-29T09:02:37.517Z,2660
2017-12-29T09:03:59.182Z,2724
2017-12-29T09:05:21.051Z,2844
2017-12-29T09:06:42.375Z,3048
2017-12-29T09:08:04.504Z,2948
2017-12-29T09:09:26.516Z,2788
2017-12-29T09:10:48.622Z,2764
2017-12-29T09:12:10.227Z,2816
2017-12-29T09:13:32.122Z,2860
2017-12-29T09:14:54.130Z,2884
2017-12-29T09:16:16.317Z,2824
2017-12-29T09:17:38.486Z,2744
2017-12-29T09:19:00.076Z,2864
2017-12-29T09:20:22.240Z,2808
2017-12-29T09:21:44.369Z,2848
2017-12-29T09:23:06.496Z,3052
2017-12-29T09:24:27.835Z,3040
2017-12-29T09:25:49.803Z,3032
2017-12-29T09:27:11.496Z,3044
2017-12-29T09:28:33.113Z,2924
2017-12-29T09:29:54.723Z,2668
2017-12-29T09:31:16.056Z,2632
2017-12-29T09:32:37.963Z,2680
2017-12-29T09:34:00.096Z,2864
2017-12-29T09:35:22.014Z,2932
2017-12-29T09:36:43.971Z,3020
2017-12-29T09:38:05.905Z,3236
2017-12-29T09:39:28.037Z,3288
2017-12-29T09:40:49.889Z,3240
2017-12-29T09:42:11.498Z,3180
2017-12-29T09:43:33.531Z,3244
2017-12-29T09:44:55.401Z,3192
2017-12-29T09:46:17.527Z,3256
2017-12-29T09:47:39.438Z,3216
2017-12-29T09:49:01.029Z,3276
2017-12-29T09:50:23.255Z,3296
2017-12-29T09:51:45.112Z,3300
2017-12-29T09:53:06.703Z,3172
2017-12-29T09:54:28.294Z,3152
2017-12-29T09:55:50.187Z,3280
2017-12-29T09:57:11.795Z,3352
2017-12-29T09:58:33.913Z,3300
2017-12-29T09:59:55.558Z,3444
2017-12-29T10:01:16.896Z,3428
2017-12-29T10:02:38.498Z,3508
2017-12-29T10:04:00.344Z,3544
2017-12-29T10:05:21.966Z,3572
2017-12-29T10:06:43.835Z,3568
2017-12-29T10:08:05.794Z,3712
2017-12-29T10:09:27.645Z,3992
2017-12-29T10:10:49.254Z,4316
2017-12-29T10:12:10.585Z,4232
2017-12-29T10:13:32.683Z,4060
2017-12-29T10:14:54.555Z,4016
2017-12-29T10:16:16.413Z,4020
2017-12-29T10:17:37.927Z,4080
2017-12-29T10:19:00.068Z,3884
2017-12-29T10:20:21.642Z,3888
2017-12-29T10:21:43.236Z,4400
2017-12-29T10:23:05.354Z,4304
2017-12-29T10:24:27.247Z,3740
2017-12-29T10:25:48.924Z,3588
2017-12-29T10:27:10.522Z,3612
2017-12-29T10:28:32.176Z,3536
2017-12-29T10:29:53.525Z,3608
2017-12-29T10:31:15.356Z,3672
2017-12-29T10:32:37.223Z,3904
2017-12-29T10:34:00.330Z,4028
2017-12-29T10:35:22.243Z,4068
2017-12-29T10:36:44.115Z,4044
2017-12-29T10:38:05.713Z,4016
2017-12-29T10:39:27.615Z,3960
2017-12-29T10:40:49.641Z,4024
2017-12-29T10:42:11.709Z,4284
2017-12-29T10:43:33.633Z,4360
2017-12-29T10:44:55.262Z,4184
2017-12-29T10:46:16.878Z,3984
2017-12-29T10:47:39.114Z,3860
2017-12-29T10:49:01.214Z,3700
2017-12-29T10:50:23.174Z,3644
2017-12-29T10:51:44.786Z,3628
2017-12-29T10:53:06.654Z,3568
2017-12-29T10:54:28.504Z,3572
2017-12-29T10:55:50.844Z,3576
2017-12-29T10:57:13.217Z,3568
2017-12-29T10:58:35.074Z,3360
2017-12-29T10:59:56.434Z,3480
2017-12-29T11:01:18.677Z,3484
2017-12-29T11:02:40.817Z,3448
2017-12-29T11:04:02.955Z,3508
2017-12-29T11:05:24.809Z,3500
2017-12-29T11:06:46.715Z,3460
2017-12-29T11:08:08.853Z,3420
2017-12-29T11:09:30.480Z,3444
2017-12-29T11:10:52.648Z,3452
2017-12-29T11:12:14.596Z,3432
2017-12-29T11:13:36.545Z,3440
2017-12-29T11:14:58.413Z,3408
2017-12-29T11:16:20.274Z,3428
2017-12-29T11:17:41.885Z,3412
2017-12-29T11:19:04.053Z,3412
2017-12-29T11:20:25.668Z,3412
2017-12-29T11:21:47.947Z,3412
2017-12-29T11:23:10.104Z,3408
2017-12-29T11:24:31.954Z,3416
2017-12-29T11:25:54.241Z,3428
2017-12-29T11:27:15.864Z,3400
2017-12-29T11:28:37.830Z,3416
2017-12-29T11:30:00.114Z,3408
2017-12-29T11:31:22.251Z,3404
2017-12-29T11:32:44.119Z,3396
2017-12-29T11:34:06.282Z,3408
2017-12-29T11:35:28.418Z,3400
2017-12-29T11:36:50.041Z,3404
2017-12-29T11:38:11.534Z,3404
2017-12-29T11:39:33.464Z,3396
2017-12-29T11:40:55.090Z,3412
2017-12-29T11:42:17.074Z,3404
2017-12-29T11:43:38.405Z,3404
2017-12-29T11:45:00.139Z,3388
2017-12-29T11:46:22.024Z,3412
2017-12-29T11:47:44.170Z,3428
2017-12-29T11:49:06.304Z,3412
2017-12-29T11:50:27.705Z,3424
2017-12-29T11:51:49.564Z,3408
2017-12-29T11:53:11.727Z,3404
2017-12-29T11:54:33.599Z,3312
2017-12-29T11:55:55.222Z,3324
2017-12-29T11:57:17.349Z,3416
2017-12-29T11:58:39.517Z,3372
2017-12-29T12:00:01.383Z,3328
2017-12-29T12:01:23.407Z,3160
2017-12-29T12:02:45.405Z,2996
2017-12-29T12:04:07.285Z,2984
2017-12-29T12:05:29.421Z,2988
2017-12-29T12:06:51.040Z,3096
2017-12-29T12:08:13.225Z,3324
2017-12-29T12:09:35.333Z,3164
2017-12-29T12:10:57.516Z,3076
2017-12-29T12:12:18.923Z,3040
2017-12-29T12:13:40.795Z,3124
2017-12-29T12:15:02.710Z,3028
2017-12-29T12:16:24.636Z,2968
2017-12-29T12:17:46.504Z,2992
2017-12-29T12:19:08.085Z,3072
2017-12-29T12:20:30.286Z,3068
2017-12-29T12:21:52.157Z,3092
2017-12-29T12:23:14.396Z,3268
2017-12-29T12:24:36.509Z,3520
2017-12-29T12:25:58.636Z,3568
2017-12-29T12:27:20.519Z,3428
2017-12-29T12:28:42.391Z,3384
2017-12-29T12:30:03.993Z,3492
2017-12-29T12:31:25.630Z,4052
2017-12-29T12:32:47.917Z,4380
2017-12-29T12:34:09.785Z,3824
2017-12-29T12:35:31.900Z,3688
2017-12-29T12:36:53.509Z,3800
2017-12-29T12:38:15.432Z,5044
2017-12-29T12:39:37.551Z,3816
2017-12-29T12:40:59.412Z,3224
2017-12-29T12:42:21.014Z,2984
2017-12-29T12:43:42.859Z,3120
2017-12-29T12:45:04.488Z,3624
2017-12-29T12:46:26.074Z,4252
2017-12-29T12:47:47.682Z,4560
2017-12-29T12:49:09.427Z,4724
2017-12-29T12:50:31.551Z,4124
2017-12-29T12:51:53.163Z,4024
2017-12-29T12:53:15.031Z,4592
2017-12-29T12:54:36.750Z,4756
2017-12-29T12:55:58.954Z,4236
2017-12-29T12:57:21.084Z,4016
2017-12-29T12:58:43.232Z,3820
2017-12-29T13:00:04.835Z,3464
2017-12-29T13:01:26.755Z,3344
2017-12-29T13:02:48.351Z,3148
2017-12-29T13:04:09.936Z,3076
2017-12-29T13:05:31.538Z,2732
2017-12-29T13:06:53.414Z,2824
2017-12-29T13:08:15.324Z,3500
2017-12-29T13:09:36.668Z,3092
2017-12-29T13:10:58.545Z,3708
2017-12-29T13:12:20.166Z,3348
2017-12-29T13:13:42.085Z,3264
2017-12-29T13:15:04.389Z,3220
2017-12-29T13:16:26.399Z,3108
2017-12-29T13:17:48.285Z,2924
2017-12-29T13:19:10.301Z,2864
2017-12-29T13:20:32.355Z,2792
2017-12-29T13:21:54.224Z,2732
2017-12-29T13:23:16.292Z,2672
2017-12-29T13:24:37.975Z,2616
2017-12-29T13:26:00.234Z,2528
2017-12-29T13:27:22.415Z,2428
2017-12-29T13:28:44.424Z,2376
2017-12-29T13:30:06.318Z,2360
2017-12-29T13:31:28.178Z,2352
2017-12-29T13:32:50.058Z,2336
2017-12-29T13:34:11.933Z,2316
2017-12-29T13:35:48.734Z,2288
2017-12-29T13:37:10.628Z,2272
2017-12-29T13:38:32.914Z,2288
2017-12-29T13:39:55.087Z,2300
2017-12-29T13:41:16.950Z,2252
2017-12-29T13:42:38.962Z,2212
2017-12-29T13:44:00.832Z,2168
2017-12-29T13:45:23.034Z,2140
2017-12-29T13:46:45.159Z,2128
2017-12-29T13:48:07.302Z,2128
2017-12-29T13:49:28.454Z,2148
2017-12-29T13:50:50.601Z,2196
2017-12-29T13:52:12.563Z,2216
2017-12-29T13:53:34.690Z,2232
2017-12-29T13:54:56.350Z,2244
2017-12-29T13:56:18.534Z,2248
2017-12-29T13:57:40.256Z,2244
2017-12-29T13:59:01.960Z,2236
2017-12-29T14:00:24.119Z,2212
2017-12-29T14:01:45.987Z,2180
2017-12-29T14:03:08.014Z,2136
2017-12-29T14:04:30.294Z,2088
2017-12-29T14:05:52.416Z,2028
2017-12-29T14:07:14.616Z,1960
2017-12-29T14:08:36.526Z,1888
2017-12-29T14:09:58.394Z,1836
2017-12-29T14:11:20.252Z,1800
2017-12-29T14:12:42.141Z,1768
2017-12-29T14:14:04.281Z,1744
2017-12-29T14:15:26.427Z,1736
2017-12-29T14:16:48.466Z,1740
2017-12-29T14:18:10.583Z,1744
2017-12-29T14:19:32.448Z,1744
2017-12-29T14:20:54.337Z,1732
2017-12-29T14:22:16.224Z,1704
2017-12-29T14:23:38.115Z,1664
2017-12-29T14:24:59.473Z,1600
2017-12-29T14:26:21.073Z,1536
2017-12-29T14:27:43.313Z,1468
2017-12-29T14:29:05.435Z,1408
2017-12-29T14:30:27.040Z,1348
2017-12-29T14:31:48.641Z,1292
2017-12-29T14:33:10.309Z,1236
2017-12-29T14:34:31.673Z,1192
2017-12-29T14:35:53.581Z,1152
2017-12-29T14:37:15.825Z,1120
2017-12-29T14:38:37.957Z,1080
2017-12-29T14:40:00.160Z,1040
2017-12-29T14:41:22.304Z,992
2017-12-29T14:42:43.373Z,944
2017-12-29T14:44:04.738Z,896
2017-12-29T14:45:26.857Z,848
2017-12-29T14:46:48.872Z,800
2017-12-29T14:48:10.464Z,760
2017-12-29T14:49:32.396Z,712
2017-12-29T14:50:54.524Z,672
2017-12-29T14:52:16.410Z,628
2017-12-29T14:53:38.562Z,588
2017-12-29T14:55:00.673Z,552
2017-12-29T14:56:22.604Z,516
2017-12-29T14:57:44.485Z,484
2017-12-29T14:59:06.098Z,448
2017-12-29T15:00:27.993Z,420
2017-12-29T15:01:49.633Z,392
2017-12-29T15:03:11.755Z,360
2017-12-29T15:04:33.698Z,336
2017-12-29T15:05:55.807Z,312
2017-12-29T15:07:17.718Z,284
2017-12-29T15:08:39.892Z,264
2017-12-29T15:10:02.038Z,244
2017-12-29T15:11:24.183Z,220
2017-12-29T15:12:45.771Z,204
2017-12-29T15:14:07.980Z,180
2017-12-29T15:15:30.090Z,160
2017-12-29T15:16:51.703Z,140
2017-12-29T15:18:13.844Z,124
2017-12-29T15:19:35.725Z,112
2017-12-29T15:20:57.911Z,96
2017-12-29T15:22:19.265Z,84
2017-12-29T15:23:41.274Z,72
2017-12-29T15:25:03.181Z,64
2017-12-29T15:26:25.514Z,56
2017-12-29T15:27:47.643Z,48
2017-12-29T15:29:09.254Z,40
2017-12-29T15:30:30.616Z,36
2017-12-29T15:31:52.846Z,28
2017-12-29T15:33:14.767Z,24
2017-12-29T15:34:36.999Z,20
2017-12-29T15:35:58.656Z,20
2017-12-29T15:37:20.553Z,12
2017-12-29T15:38:42.505Z,12
2017-12-29T15:40:04.746Z,8
2017-12-29T15:41:26.829Z,8
2017-12-29T15:42:48.798Z,8
2017-12-29T15:44:10.753Z,8
2017-12-29T15:45:32.640Z,4
2017-12-29T15:46:53.982Z,4
2017-12-29T15:48:15.887Z,4
2017-12-29T15:49:38.028Z,0
2017-12-29T15:50:59.711Z,4
2017-12-29T15:52:21.374Z,0
2017-12-29T15:53:43.244Z,0
2017-12-29T15:55:05.517Z,0
2017-12-29T15:56:27.400Z,0
2017-12-29T15:57:49.591Z,0
2017-12-29T15:59:11.524Z,0
2017-12-29T16:00:33.411Z,0
2017-12-29T16:01:55.548Z,0
2017-12-29T16:03:16.940Z,0
2017-12-29T16:04:39.146Z,0
2017-12-29T16:06:01.334Z,0
2017-12-29T16:07:22.990Z,0
2017-12-29T16:08:44.874Z,0
2017-12-29T16:10:06.785Z,0
2017-12-29T16:11:28.819Z,0
2017-12-29T16:12:50.996Z,0
2017-12-29T16:14:13.443Z,0
2017-12-29T16:15:35.554Z,0
2017-12-29T16:16:57.506Z,0
2017-12-29T16:18:19.140Z,0
2017-12-29T16:19:41.445Z,0
2017-12-29T16:21:03.019Z,0
2017-12-29T16:22:24.948Z,0
2017-12-29T16:23:46.964Z,0
2017-12-29T16:25:08.365Z,0
2017-12-29T16:26:30.560Z,0
2017-12-29T16:27:52.514Z,0
2017-12-29T16:29:14.425Z,0
2017-12-29T16:30:36.310Z,0
2017-12-29T16:31:58.184Z,0
2017-12-29T16:33:20.311Z,0
2017-12-29T16:34:41.935Z,0
2017-12-29T16:36:04.094Z,0
2017-12-29T16:37:26.243Z,0
2017-12-29T16:38:48.411Z,0
2017-12-29T16:40:10.553Z,0
2017-12-29T16:41:32.184Z,0
2017-12-29T16:42:53.790Z,0
2017-12-29T16:44:16.084Z,0
2017-12-29T16:45:38.196Z,0
2017-12-29T16:47:00.138Z,0
2017-12-29T16:48:21.737Z,0
2017-12-29T16:49:43.643Z,0
2017-12-29T16:51:05.947Z,0
2017-12-29T16:52:28.222Z,0
2017-12-29T16:53:49.839Z,0
2017-12-29T16:55:11.948Z,0
2017-12-29T16:56:33.318Z,0
2017-12-29T16:57:54.955Z,0
2017-12-29T16:59:17.256Z,0
2017-12-29T17:00:39.183Z,0
2017-12-29T17:02:01.362Z,0
2017-12-29T17:03:23.269Z,0
2017-12-29T17:04:45.146Z,0
2017-12-29T17:06:07.277Z,0
2017-12-29T17:07:29.424Z,0
2017-12-29T17:08:51.421Z,0
2017-12-29T17:10:13.394Z,0
2017-12-29T17:11:35.362Z,0
2017-12-29T17:12:57.311Z,0
2017-12-29T17:14:19.209Z,0
2017-12-29T17:15:41.065Z,0
2017-12-29T17:17:03.013Z,0
2017-12-29T17:18:24.738Z,0
2017-12-29T17:19:46.924Z,0
2017-12-29T17:21:09.093Z,0
2017-12-29T17:22:31.386Z,0
2017-12-29T17:23:53.619Z,0
2017-12-29T17:25:15.779Z,0
2017-12-29T17:26:37.499Z,0
2017-12-29T17:27:59.639Z,0
2017-12-29T17:29:21.298Z,0
2017-12-29T17:30:43.165Z,0
2017-12-29T17:32:05.383Z,0
2017-12-29T17:33:27.240Z,0
2017-12-29T17:34:49.130Z,0
2017-12-29T17:36:11.005Z,0
2017-12-29T17:37:33.154Z,0
2017-12-29T17:38:55.086Z,0
2017-12-29T17:40:16.967Z,0
2017-12-29T17:41:39.092Z,0
2017-12-29T17:43:00.959Z,0
2017-12-29T17:44:22.570Z,0
2017-12-29T17:45:44.765Z,0
2017-12-29T17:47:06.444Z,0
2017-12-29T17:48:28.560Z,0
2017-12-29T17:49:50.445Z,0
2017-12-29T17:51:12.617Z,0
2017-12-29T17:52:34.332Z,0
2017-12-29T17:53:56.217Z,0
2017-12-29T17:55:18.455Z,0
2017-12-29T17:56:40.434Z,0
2017-12-29T17:58:02.510Z,0
2017-12-29T17:59:24.406Z,0
2017-12-29T18:00:46.401Z,0
2017-12-29T18:02:08.516Z,0
2017-12-29T18:03:30.644Z,0
2017-12-29T18:04:52.539Z,0
2017-12-29T18:06:14.723Z,0
2017-12-29T18:07:35.553Z,0
2017-12-29T18:08:57.198Z,0
2017-12-29T18:10:18.866Z,0
2017-12-29T18:11:40.263Z,0
2017-12-29T18:13:02.548Z,0
2017-12-29T18:14:24.951Z,0
2017-12-29T18:15:46.828Z,0
2017-12-29T18:17:08.868Z,0
2017-12-29T18:18:30.764Z,0
2017-12-29T18:19:52.900Z,0
2017-12-29T18:21:15.174Z,0
2017-12-29T18:22:36.774Z,0
2017-12-29T18:23:58.646Z,0
2017-12-29T18:25:20.295Z,0
2017-12-29T18:26:42.454Z,0
2017-12-29T18:28:04.594Z,0
2017-12-29T18:29:26.002Z,0
2017-12-29T18:30:48.203Z,0
2017-12-29T18:32:10.436Z,0
2017-12-29T18:33:32.585Z,0
2017-12-29T18:34:54.744Z,0
2017-12-29T18:36:16.638Z,0
2017-12-29T18:37:38.546Z,0
2017-12-29T18:39:00.685Z,0
2017-12-29T18:40:22.675Z,0
2017-12-29T18:41:44.834Z,0
2017-12-29T18:43:06.998Z,0
2017-12-29T18:44:29.324Z,0
2017-12-29T18:45:51.215Z,0
2017-12-29T18:47:13.359Z,0
2017-12-29T18:48:35.596Z,0
2017-12-29T18:49:57.764Z,0
2017-12-29T18:51:19.902Z,0
2017-12-29T18:52:41.249Z,0
2017-12-29T18:54:03.155Z,0
2017-12-29T18:55:25.351Z,0
2017-12-29T18:56:47.348Z,0
2017-12-29T18:58:09.496Z,0
2017-12-29T18:59:31.728Z,0
2017-12-29T19:00:53.887Z,0
2017-12-29T19:02:15.832Z,0
2017-12-29T19:03:37.960Z,0
2017-12-29T19:05:00.002Z,0
2017-12-29T19:06:22.124Z,0
2017-12-29T19:07:43.475Z,0
2017-12-29T19:09:05.636Z,0
2017-12-29T19:10:27.796Z,0
2017-12-29T19:11:49.708Z,0
2017-12-29T19:13:11.614Z,0
2017-12-29T19:14:33.775Z,0
2017-12-29T19:15:55.924Z,0
2017-12-29T19:17:18.063Z,0
2017-12-29T19:18:40.012Z,0
2017-12-29T19:20:01.921Z,0